Time;durP1;ratioP1;P1;durP2;ratioP2;P2;SDS_P1;SDS_P2;PMS_P1;PMS_P2;Temp;Humidity;BMP_temperature;BMP_pressure;BME280_temperature;BME280_humidity;BME280_pressure;Samples;Min_cycle;Max_cycle;Signal;HPM_P1;HPM_P2
2022/12/13 00:01:47;;;;;;;23.23;13.95;;;-5.00;99.90;;;;;;4974949;28;20229;-79
2022/12/13 00:04:13;;;;;;;22.55;12.75;;;-5.10;99.90;;;;;;4975117;28;20181;-80
2022/12/13 00:06:39;;;;;;;31.27;17.20;;;-5.10;99.90;;;;;;4974788;28;20268;-80
2022/12/13 00:09:05;;;;;;;28.20;13.90;;;-5.20;99.90;;;;;;4975490;28;20908;-81
2022/12/13 00:11:31;;;;;;;23.60;13.48;;;-5.30;99.90;;;;;;4975424;28;20229;-81
2022/12/13 00:13:57;;;;;;;27.15;14.43;;;-5.50;99.90;;;;;;4992392;28;20299;-80
2022/12/13 00:16:24;;;;;;;25.03;14.43;;;-5.50;99.90;;;;;;4958894;28;20190;-80
2022/12/13 00:18:55;;;;;;;23.00;13.25;;;-5.50;99.90;;;;;;4974623;28;20225;-80
2022/12/13 00:21:26;;;;;;;28.52;13.00;;;-5.60;99.90;;;;;;4959024;28;20271;-82
2022/12/13 00:23:52;;;;;;;22.73;13.32;;;-5.60;99.90;;;;;;4958652;28;20221;-80
2022/12/13 00:26:20;;;;;;;20.57;11.80;;;-5.60;99.90;;;;;;4974314;28;20179;-80
2022/12/13 00:28:48;;;;;;;11.40;7.80;;;-5.50;99.90;;;;;;4974184;28;20616;-80
2022/12/13 00:31:14;;;;;;;20.55;11.15;;;-5.20;99.90;;;;;;4958139;28;20719;-80
2022/12/13 00:33:40;;;;;;;20.17;10.43;;;-5.20;99.90;;;;;;4957675;28;20235;-77
2022/12/13 00:36:07;;;;;;;14.23;9.60;;;-5.20;99.90;;;;;;4973615;28;20279;-76
2022/12/13 00:38:34;;;;;;;10.05;6.97;;;-4.90;99.90;;;;;;4973602;28;20189;-76
2022/12/13 00:41:08;;;;;;;11.18;7.35;;;-4.80;99.90;;;;;;4973441;28;20212;-76
2022/12/13 00:43:33;;;;;;;19.77;10.20;;;-4.70;99.90;;;;;;4990937;28;20755;-76
2022/12/13 00:45:59;;;;;;;18.17;10.73;;;-4.80;99.90;;;;;;4957711;28;20189;-76
2022/12/13 00:48:24;;;;;;;22.13;11.60;;;-5.00;99.90;;;;;;4941864;28;20204;-77
2022/12/13 00:50:50;;;;;;;18.77;10.37;;;-5.00;99.90;;;;;;4991688;28;20252;-76
2022/12/13 00:53:15;;;;;;;19.40;11.37;;;-5.20;99.90;;;;;;4973685;28;20211;-76
2022/12/13 00:55:41;;;;;;;25.00;13.20;;;-5.20;99.90;;;;;;4990826;28;20189;-76
2022/12/13 00:58:07;;;;;;;26.23;15.30;;;-5.40;99.90;;;;;;4973069;28;20653;-76
2022/12/13 01:00:32;;;;;;;29.30;15.33;;;-5.50;99.90;;;;;;4973688;28;20657;-78
2022/12/13 01:02:58;;;;;;;39.57;17.77;;;-5.50;99.90;;;;;;4973384;28;20356;-78
2022/12/13 01:05:23;;;;;;;47.00;21.20;;;-5.60;99.90;;;;;;4991036;28;20189;-78
2022/12/13 01:07:49;;;;;;;45.70;21.47;;;-5.70;99.90;;;;;;4957175;28;20263;-78
2022/12/13 01:10:15;;;;;;;47.87;21.57;;;-5.70;99.90;;;;;;4941200;28;20699;-76
2022/12/13 01:12:40;;;;;;;49.10;19.70;;;-5.70;99.90;;;;;;4991341;28;20214;-77
2022/12/13 01:15:07;;;;;;;34.47;17.47;;;-5.80;99.90;;;;;;4957305;28;20218;-77
2022/12/13 01:17:34;;;;;;;33.05;16.13;;;-5.80;99.90;;;;;;4989998;28;20193;-77
2022/12/13 01:19:59;;;;;;;33.08;16.00;;;-5.90;99.90;;;;;;4990642;28;20193;-77
2022/12/13 01:22:25;;;;;;;27.23;14.20;;;-5.80;99.90;;;;;;4972828;28;20239;-78
2022/12/13 01:24:51;;;;;;;26.97;13.57;;;-5.80;99.90;;;;;;4990221;28;20194;-77
2022/12/13 01:27:16;;;;;;;24.27;12.67;;;-5.80;99.90;;;;;;4972630;28;20181;-78
2022/12/13 01:29:42;;;;;;;18.97;10.73;;;-5.90;99.90;;;;;;4973079;28;20277;-78
2022/12/13 01:32:07;;;;;;;25.43;12.30;;;-5.90;99.90;;;;;;4972580;28;20231;-78
2022/12/13 01:34:33;;;;;;;22.83;12.07;;;-5.90;99.90;;;;;;4956822;28;20194;-78
2022/12/13 01:36:58;;;;;;;20.30;11.67;;;-6.00;99.90;;;;;;4990187;28;20184;-77
2022/12/13 01:39:25;;;;;;;20.60;11.50;;;-5.90;99.90;;;;;;4972890;28;20279;-77
2022/12/13 01:41:58;;;;;;;25.88;12.43;;;-5.80;99.90;;;;;;4989984;28;20210;-77
2022/12/13 01:44:55;;;;;;;20.65;10.88;;;-5.80;99.90;;;;;;4990160;28;20769;-78
2022/12/13 01:47:32;;;;;;;19.60;11.50;;;-5.80;99.90;;;;;;4972482;28;20189;-78
2022/12/13 01:50:05;;;;;;;24.05;11.52;;;-5.80;99.90;;;;;;4972272;28;20184;-83
2022/12/13 01:52:33;;;;;;;28.83;14.05;;;-5.90;99.90;;;;;;4990139;28;20745;-80
2022/12/13 01:55:03;;;;;;;23.52;13.05;;;-5.90;99.90;;;;;;4990198;28;20972;-80
2022/12/13 01:57:29;;;;;;;27.73;12.55;;;-6.00;99.90;;;;;;4956579;28;20194;-80
2022/12/13 01:59:54;;;;;;;26.85;13.63;;;-6.00;99.90;;;;;;4972190;28;20974;-80
2022/12/13 02:02:21;;;;;;;22.80;12.77;;;-6.00;99.90;;;;;;4972866;28;20231;-79
2022/12/13 02:05:13;;;;;;;23.08;12.63;;;-6.10;99.90;;;;;;4973671;28;20186;-81
2022/12/13 02:07:42;;;;;;;24.15;12.80;;;-6.10;99.90;;;;;;4972424;28;20245;-79
2022/12/13 02:10:09;;;;;;;22.40;12.00;;;-6.30;99.90;;;;;;4972482;28;20197;-80
2022/12/13 02:12:36;;;;;;;31.10;14.15;;;-6.30;99.90;;;;;;4956572;28;20219;-76
2022/12/13 02:15:13;;;;;;;24.95;12.48;;;-6.30;99.90;;;;;;4989985;28;20645;-76
2022/12/13 02:18:00;;;;;;;22.80;12.80;;;-6.40;99.90;;;;;;4990335;28;20612;-77
2022/12/13 02:20:40;;;;;;;20.75;11.80;;;-6.30;99.90;;;;;;4972024;28;20242;-77
2022/12/13 02:23:19;;;;;;;24.58;12.35;;;-6.40;99.90;;;;;;4989848;28;20193;-78
2022/12/13 02:25:54;;;;;;;17.90;10.38;;;-6.40;99.90;;;;;;4972337;28;20720;-79
2022/12/13 02:29:09;;;;;;;21.95;11.73;;;-6.30;99.90;;;;;;4972220;28;20183;-78
2022/12/13 02:31:48;;;;;;;19.80;11.63;;;-6.30;99.90;;;;;;4959496;28;20213;-80
2022/12/13 02:34:25;;;;;;;20.02;12.00;;;-6.30;99.90;;;;;;4976358;28;20176;-78
2022/12/13 02:37:16;;;;;;;20.60;12.32;;;-6.30;99.90;;;;;;4976251;28;20178;-78
2022/12/13 02:39:50;;;;;;;23.20;12.73;;;-6.40;99.90;;;;;;4994464;28;20172;-81
2022/12/13 02:42:33;;;;;;;25.27;12.57;;;-6.40;99.90;;;;;;4976693;28;20311;-83
2022/12/13 02:45:10;;;;;;;19.90;11.75;;;-6.40;99.90;;;;;;4994658;28;20173;-80
2022/12/13 02:47:38;;;;;;;20.83;11.88;;;-6.40;99.90;;;;;;4976929;28;20181;-81
2022/12/13 02:50:08;;;;;;;21.85;11.65;;;-6.40;99.90;;;;;;4976770;28;20563;-80
2022/12/13 02:52:34;;;;;;;242.02;83.28;;;-6.40;99.90;;;;;;4976533;28;20693;-79
2022/12/13 02:55:07;;;;;;;79.50;28.58;;;-6.40;99.90;;;;;;4960690;28;20282;-80
2022/12/13 02:57:34;;;;;;;40.10;18.20;;;-6.30;99.90;;;;;;4994287;28;20248;-80
2022/12/13 03:00:19;;;;;;;34.30;16.02;;;-6.30;99.90;;;;;;4976892;28;20243;-78
2022/12/13 03:03:11;;;;;;;25.73;13.93;;;-6.30;99.90;;;;;;4994899;28;20255;-81
2022/12/13 03:09:06;;;;;;;23.20;11.98;;;-6.40;99.90;;;;;;4995183;28;20173;-77
2022/12/13 03:15:03;;;;;;;13.77;8.93;;;-6.40;99.90;;;;;;4972425;28;20243;-78
2022/12/13 03:17:35;;;;;;;13.13;8.38;;;-6.50;99.90;;;;;;4978598;28;20212;-78
2022/12/13 03:20:02;;;;;;;19.75;8.70;;;-6.60;99.90;;;;;;4982837;28;20184;-79
2022/12/13 03:22:28;;;;;;;13.40;7.95;;;-6.60;99.90;;;;;;5011506;28;20209;-79
2022/12/13 03:24:54;;;;;;;17.43;9.80;;;-6.70;99.90;;;;;;5001340;28;20204;-79
2022/12/13 03:27:19;;;;;;;16.53;9.00;;;-6.60;99.90;;;;;;4994018;28;20219;-78
2022/12/13 03:29:45;;;;;;;11.10;7.47;;;-6.70;99.90;;;;;;4993546;28;20216;-78
2022/12/13 03:32:10;;;;;;;15.97;9.20;;;-6.50;99.90;;;;;;4943902;28;20236;-77
2022/12/13 03:34:36;;;;;;;14.67;8.90;;;-6.60;99.90;;;;;;4977117;28;20287;-80
2022/12/13 03:37:02;;;;;;;22.17;12.73;;;-6.60;99.90;;;;;;4945814;28;20199;-80
2022/12/13 03:39:27;;;;;;;18.20;10.27;;;-6.50;99.90;;;;;;4994411;28;20562;-78
2022/12/13 03:41:53;;;;;;;18.03;9.77;;;-6.60;99.90;;;;;;4976216;28;20209;-81
2022/12/13 03:44:18;;;;;;;16.83;9.30;;;-6.70;99.90;;;;;;4961363;28;20192;-79
2022/12/13 03:46:44;;;;;;;17.63;9.20;;;-6.70;99.90;;;;;;4960231;28;20196;-80
2022/12/13 03:49:09;;;;;;;15.70;8.27;;;-6.60;99.90;;;;;;4994564;28;20229;-82
2022/12/13 03:51:35;;;;;;;16.37;8.90;;;-6.60;99.90;;;;;;4945469;28;20229;-78
2022/12/13 03:54:01;;;;;;;13.77;8.17;;;-6.50;99.90;;;;;;4976160;28;20192;-80
2022/12/13 03:56:26;;;;;;;13.83;8.97;;;-6.50;99.90;;;;;;4959922;28;20196;-79
2022/12/13 03:58:52;;;;;;;15.60;8.57;;;-6.50;99.90;;;;;;4959936;28;20312;-79
2022/12/13 04:01:17;;;;;;;15.97;9.30;;;-6.60;99.90;;;;;;4960081;28;20206;-79
2022/12/13 04:03:45;;;;;;;11.73;7.90;;;-6.60;99.90;;;;;;4993814;28;20212;-78
2022/12/13 04:06:12;;;;;;;19.23;9.35;;;-6.70;99.90;;;;;;4992921;28;20180;-78
2022/12/13 04:08:38;;;;;;;11.18;7.97;;;-6.60;99.90;;;;;;4992196;28;20186;-78
2022/12/13 04:13:49;;;;;;;13.98;8.50;;;-6.80;99.90;;;;;;4992442;28;20197;-79
2022/12/13 04:16:15;;;;;;;14.60;8.40;;;-6.80;99.90;;;;;;4991996;28;20285;-78
2022/12/13 04:18:40;;;;;;;14.10;6.07;;;-6.70;99.90;;;;;;4958519;28;20201;-79
2022/12/13 04:21:06;;;;;;;20.20;7.23;;;-6.90;99.90;;;;;;4958573;28;20305;-78
2022/12/13 04:23:31;;;;;;;11.73;7.70;;;-6.80;99.90;;;;;;4991920;28;20215;-78
2022/12/13 04:25:58;;;;;;;12.27;6.37;;;-6.70;99.90;;;;;;4974632;28;20196;-80
2022/12/13 04:28:24;;;;;;;13.32;7.72;;;-6.80;99.90;;;;;;4958527;28;20191;-78
2022/12/13 04:30:50;;;;;;;11.20;6.30;;;-6.80;99.90;;;;;;4974572;28;20691;-78
2022/12/13 04:33:16;;;;;;;12.30;6.60;;;-6.80;99.90;;;;;;4991998;28;20215;-78
2022/12/13 04:35:41;;;;;;;11.80;7.07;;;-6.80;99.90;;;;;;4974778;28;20187;-79
2022/12/13 04:38:07;;;;;;;10.97;7.30;;;-6.70;99.90;;;;;;4974556;28;20590;-79
2022/12/13 04:40:33;;;;;;;16.07;7.50;;;-6.70;99.90;;;;;;4974408;28;20239;-78
2022/12/13 04:42:59;;;;;;;15.45;8.60;;;-6.80;99.90;;;;;;4974028;28;20206;-78
2022/12/13 04:45:25;;;;;;;21.70;8.63;;;-6.80;99.90;;;;;;4992091;28;20198;-78
2022/12/13 04:47:50;;;;;;;19.00;8.80;;;-6.80;99.90;;;;;;4974345;28;20260;-78
2022/12/13 04:50:16;;;;;;;10.00;7.30;;;-6.80;99.90;;;;;;4974082;28;20208;-78
2022/12/13 04:52:43;;;;;;;13.90;7.83;;;-6.80;99.90;;;;;;4957073;28;20319;-79
2022/12/13 04:55:08;;;;;;;10.00;6.30;;;-6.80;99.90;;;;;;4973916;28;20307;-78
2022/12/13 04:57:34;;;;;;;15.40;8.17;;;-6.70;99.90;;;;;;4973846;28;20735;-78
2022/12/13 05:00:00;;;;;;;11.37;7.53;;;-6.80;99.90;;;;;;4974041;28;20507;-79
2022/12/13 05:02:25;;;;;;;15.43;8.27;;;-6.70;99.90;;;;;;4991397;28;20300;-77
2022/12/13 05:04:51;;;;;;;13.57;8.67;;;-6.70;99.90;;;;;;4973934;28;20178;-77
2022/12/13 05:07:17;;;;;;;12.63;8.00;;;-6.70;99.90;;;;;;4991332;28;20542;-77
2022/12/13 05:09:42;;;;;;;15.47;8.77;;;-6.70;99.90;;;;;;4991271;28;20448;-77
2022/12/13 05:12:08;;;;;;;14.63;8.30;;;-6.70;99.90;;;;;;4973427;28;20631;-77
2022/12/13 05:14:33;;;;;;;15.43;8.67;;;-6.70;99.90;;;;;;4957305;28;20190;-78
2022/12/13 05:17:00;;;;;;;19.43;8.03;;;-6.70;99.90;;;;;;4957406;28;20275;-77
2022/12/13 05:19:26;;;;;;;11.50;7.47;;;-6.80;99.90;;;;;;4991280;28;20192;-79
2022/12/13 05:21:51;;;;;;;10.80;7.17;;;-6.90;99.90;;;;;;4990516;28;20785;-77
2022/12/13 05:24:17;;;;;;;10.20;6.23;;;-6.90;99.90;;;;;;4972404;28;20414;-77
2022/12/13 05:26:43;;;;;;;12.03;7.17;;;-6.90;99.90;;;;;;4939633;28;20188;-77
2022/12/13 05:29:08;;;;;;;8.80;6.00;;;-7.10;99.90;;;;;;4972081;28;20271;-78
2022/12/13 05:31:34;;;;;;;9.97;6.23;;;-7.10;99.90;;;;;;4971427;28;20317;-77
2022/12/13 05:34:00;;;;;;;11.37;6.33;;;-7.10;99.90;;;;;;4971568;28;20239;-77
2022/12/13 05:36:26;;;;;;;12.43;7.37;;;-7.00;99.90;;;;;;4989060;28;20479;-77
2022/12/13 05:38:52;;;;;;;13.13;7.00;;;-7.10;99.90;;;;;;4971865;28;20233;-77
2022/12/13 05:41:20;;;;;;;15.38;7.85;;;-7.10;99.90;;;;;;4955281;28;20218;-77
2022/12/13 05:43:46;;;;;;;13.32;8.32;;;-7.10;99.90;;;;;;4989127;28;20213;-77
2022/12/13 05:46:12;;;;;;;10.30;6.90;;;-7.10;99.90;;;;;;4955330;28;20204;-77
2022/12/13 05:48:37;;;;;;;9.73;6.53;;;-7.20;99.90;;;;;;4989143;28;20186;-77
2022/12/13 05:51:03;;;;;;;21.00;12.57;;;-7.20;99.90;;;;;;4990218;28;20204;-77
2022/12/13 05:53:29;;;;;;;26.48;15.57;;;-7.40;99.90;;;;;;4989553;28;20764;-77
2022/12/13 05:55:58;;;;;;;18.47;11.20;;;-7.40;99.90;;;;;;4972499;28;20200;-77
2022/12/13 05:58:24;;;;;;;16.25;9.00;;;-7.30;99.90;;;;;;4971557;28;20192;-77
2022/12/13 06:00:50;;;;;;;12.43;8.20;;;-7.30;99.90;;;;;;4971227;28;20413;-77
2022/12/13 06:03:15;;;;;;;14.77;8.10;;;-7.30;99.90;;;;;;4971047;28;20698;-77
2022/12/13 06:05:42;;;;;;;16.23;9.57;;;-7.30;99.90;;;;;;4971183;28;20607;-77
2022/12/13 06:08:08;;;;;;;13.45;7.55;;;-7.30;99.90;;;;;;4988786;28;20183;-77
2022/12/13 06:10:34;;;;;;;26.30;13.50;;;-7.30;99.90;;;;;;4955359;28;20560;-77
2022/12/13 06:12:59;;;;;;;14.93;8.70;;;-7.40;99.90;;;;;;4970946;28;20214;-77
2022/12/13 06:15:25;;;;;;;11.00;6.00;;;-7.40;99.90;;;;;;4971592;28;20610;-77
2022/12/13 06:17:51;;;;;;;12.27;6.47;;;-7.50;99.90;;;;;;4971061;28;20211;-77
2022/12/13 06:20:17;;;;;;;9.90;5.47;;;-7.40;99.90;;;;;;4938776;28;20665;-77
2022/12/13 06:22:42;;;;;;;9.13;6.80;;;-7.50;99.90;;;;;;4970779;28;20290;-77
2022/12/13 06:25:08;;;;;;;10.20;6.40;;;-7.60;99.90;;;;;;4971037;28;20796;-77
2022/12/13 06:27:34;;;;;;;8.37;5.40;;;-7.60;99.90;;;;;;4971143;28;20246;-77
2022/12/13 06:29:59;;;;;;;9.83;6.03;;;-7.60;99.90;;;;;;4971195;28;20345;-77
2022/12/13 06:32:25;;;;;;;11.33;5.77;;;-7.60;99.90;;;;;;4954636;28;20230;-77
2022/12/13 06:34:50;;;;;;;9.80;5.90;;;-7.60;99.90;;;;;;4938806;28;20197;-77
2022/12/13 06:37:16;;;;;;;13.63;8.43;;;-7.60;99.90;;;;;;4988595;28;20186;-77
2022/12/13 06:39:42;;;;;;;11.80;7.63;;;-7.70;99.90;;;;;;4988822;28;20663;-77
2022/12/13 06:42:14;;;;;;;15.07;8.07;;;-7.60;99.90;;;;;;4970762;28;20320;-77
2022/12/13 06:44:40;;;;;;;14.07;7.85;;;-7.60;99.90;;;;;;4970817;28;20188;-77
2022/12/13 06:47:06;;;;;;;55.05;17.98;;;-7.60;99.90;;;;;;4954765;28;20187;-77
2022/12/13 06:49:32;;;;;;;15.57;8.75;;;-7.60;99.90;;;;;;4988407;28;20182;-78
2022/12/13 06:51:58;;;;;;;12.67;7.73;;;-7.60;99.90;;;;;;4971371;28;20207;-77
2022/12/13 06:54:23;;;;;;;8.90;6.30;;;-7.50;99.90;;;;;;4970661;28;20931;-77
2022/12/13 06:56:49;;;;;;;8.80;5.50;;;-7.60;99.90;;;;;;4970844;28;20193;-77
2022/12/13 06:59:15;;;;;;;13.47;6.80;;;-7.50;99.90;;;;;;4970855;28;20212;-78
2022/12/13 07:01:40;;;;;;;16.03;8.77;;;-7.50;99.90;;;;;;4988136;28;20278;-77
2022/12/13 07:04:08;;;;;;;11.97;7.20;;;-7.50;99.90;;;;;;4970658;28;20210;-77
2022/12/13 07:06:33;;;;;;;15.00;8.35;;;-7.40;99.90;;;;;;4970768;28;20218;-77
2022/12/13 07:08:59;;;;;;;17.30;9.00;;;-7.40;99.90;;;;;;4938309;28;20639;-76
2022/12/13 07:11:29;;;;;;;18.50;10.03;;;-7.30;99.90;;;;;;4988245;28;20777;-77
2022/12/13 07:13:55;;;;;;;37.38;13.55;;;-7.30;99.90;;;;;;4970964;28;20287;-77
2022/12/13 07:16:22;;;;;;;14.60;8.60;;;-7.30;99.90;;;;;;4990133;28;20814;-76
2022/12/13 07:18:56;;;;;;;13.25;8.00;;;-7.30;99.90;;;;;;4974035;28;20203;-76
2022/12/13 07:21:22;;;;;;;14.18;6.63;;;-7.20;99.90;;;;;;4974119;28;20290;-76
2022/12/13 07:23:49;;;;;;;8.53;5.60;;;-7.30;99.90;;;;;;4991601;28;20234;-76
2022/12/13 07:26:15;;;;;;;11.43;5.85;;;-7.30;99.90;;;;;;4992069;28;20596;-77
2022/12/13 07:28:40;;;;;;;10.83;6.23;;;-7.30;99.90;;;;;;4974195;28;20184;-76
2022/12/13 07:31:08;;;;;;;10.77;5.60;;;-7.20;99.90;;;;;;4992002;28;21040;-76
2022/12/13 07:33:34;;;;;;;8.55;5.70;;;-7.20;99.90;;;;;;4991835;28;20222;-77
2022/12/13 07:36:09;;;;;;;7.75;5.20;;;-7.20;99.90;;;;;;4992002;28;20234;-76
2022/12/13 07:38:36;;;;;;;8.90;5.47;;;-7.10;99.90;;;;;;4991844;28;20705;-77
2022/12/13 07:41:02;;;;;;;11.82;5.60;;;-7.00;99.90;;;;;;4991884;28;20200;-77
2022/12/13 07:43:28;;;;;;;12.45;6.20;;;-7.00;99.90;;;;;;4973924;28;20246;-76
2022/12/13 07:45:58;;;;;;;13.50;6.43;;;-7.00;99.90;;;;;;4991797;28;20725;-76
2022/12/13 07:48:24;;;;;;;8.75;5.65;;;-6.90;99.90;;;;;;4991431;28;20235;-77
2022/12/13 07:50:50;;;;;;;8.93;5.13;;;-6.90;99.90;;;;;;4973824;28;20186;-76
2022/12/13 07:53:15;;;;;;;13.17;5.87;;;-6.80;99.90;;;;;;4957603;28;20878;-76
2022/12/13 07:55:41;;;;;;;23.30;9.70;;;-6.60;99.90;;;;;;4957938;28;20192;-77
2022/12/13 07:58:10;;;;;;;63.23;18.97;;;-6.60;99.90;;;;;;4973772;28;20193;-77
2022/12/13 08:00:37;;;;;;;26.90;12.05;;;-6.50;99.90;;;;;;4973599;28;20196;-76
2022/12/13 08:03:03;;;;;;;28.70;13.07;;;-6.50;99.90;;;;;;4973337;28;20226;-77
2022/12/13 08:05:28;;;;;;;21.47;12.67;;;-6.40;99.90;;;;;;4991216;28;20184;-76
2022/12/13 08:07:54;;;;;;;17.40;8.70;;;-6.40;99.90;;;;;;4942794;28;20803;-77
2022/12/13 08:10:20;;;;;;;17.07;10.73;;;-6.30;99.90;;;;;;4973992;28;20649;-76
2022/12/13 08:12:45;;;;;;;19.03;9.90;;;-6.10;99.90;;;;;;4973384;28;20214;-77
2022/12/13 08:15:11;;;;;;;13.03;7.60;;;-5.90;99.90;;;;;;4974508;28;20199;-77
2022/12/13 08:17:37;;;;;;;18.60;10.20;;;-5.70;99.90;;;;;;4974629;28;20194;-76
2022/12/13 08:20:04;;;;;;;17.07;9.50;;;-5.50;99.90;;;;;;4957486;28;20200;-77
2022/12/13 08:22:29;;;;;;;13.60;8.43;;;-5.20;99.90;;;;;;4972732;28;20307;-77
2022/12/13 08:24:55;;;;;;;18.43;9.73;;;-5.00;99.90;;;;;;4990420;28;20270;-77
2022/12/13 08:27:20;;;;;;;22.63;11.07;;;-4.90;99.90;;;;;;4956932;28;20734;-78
2022/12/13 08:29:46;;;;;;;17.93;10.07;;;-4.60;99.90;;;;;;4990467;28;20220;-77
2022/12/13 08:32:12;;;;;;;20.13;11.63;;;-4.30;99.90;;;;;;4973692;28;20952;-78
2022/12/13 08:34:38;;;;;;;32.07;16.87;;;-4.30;99.90;;;;;;4991535;28;20208;-77
2022/12/13 08:37:04;;;;;;;36.03;15.75;;;-4.20;99.90;;;;;;4975057;28;20428;-78
2022/12/13 08:39:35;;;;;;;30.63;16.80;;;-4.30;99.90;;;;;;4992962;28;20185;-78
2022/12/13 08:42:15;;;;;;;30.33;15.38;;;-4.20;99.90;;;;;;4992508;28;20280;-77
2022/12/13 08:44:41;;;;;;;35.25;17.90;;;-4.20;99.90;;;;;;4991974;28;20566;-78
2022/12/13 08:47:06;;;;;;;38.63;17.33;;;-4.20;99.90;;;;;;4974261;28;20190;-77
2022/12/13 08:49:32;;;;;;;35.00;17.63;;;-4.20;99.90;;;;;;4991472;28;20192;-77
2022/12/13 08:51:58;;;;;;;33.00;18.20;;;-4.10;99.90;;;;;;4991378;28;20689;-78
2022/12/13 08:54:24;;;;;;;37.33;16.75;;;-4.10;99.90;;;;;;4974557;28;20178;-78
2022/12/13 08:56:50;;;;;;;27.60;16.03;;;-4.00;99.90;;;;;;4990826;28;20636;-77
2022/12/13 08:59:17;;;;;;;26.17;15.77;;;-4.10;99.90;;;;;;4989720;28;20429;-78
2022/12/13 09:01:42;;;;;;;20.70;12.45;;;-4.20;99.90;;;;;;4972911;28;20202;-77
2022/12/13 09:04:08;;;;;;;21.03;13.20;;;-4.30;99.90;;;;;;4971866;28;20586;-77
2022/12/13 09:06:33;;;;;;;26.30;12.77;;;-4.20;99.90;;;;;;4989357;28;20209;-77
2022/12/13 09:08:59;;;;;;;19.93;12.00;;;-4.20;99.90;;;;;;4971877;28;20193;-77
2022/12/13 09:11:25;;;;;;;20.40;12.93;;;-4.10;99.90;;;;;;4955335;28;20210;-78
2022/12/13 09:13:50;;;;;;;37.73;17.53;;;-4.10;99.90;;;;;;4955797;28;20942;-77
2022/12/13 09:16:21;;;;;;;52.03;27.70;;;-4.00;99.90;;;;;;4989111;28;20656;-77
2022/12/13 09:18:46;;;;;;;56.30;27.25;;;-4.00;99.90;;;;;;4990117;28;20162;-77
2022/12/13 09:21:14;;;;;;;32.40;17.23;;;-3.90;99.90;;;;;;4989035;28;20206;-77
2022/12/13 09:23:42;;;;;;;23.00;11.35;;;-3.90;99.90;;;;;;4971990;28;20206;-77
2022/12/13 09:26:11;;;;;;;21.35;13.50;;;-3.90;99.90;;;;;;4989154;28;20177;-78
2022/12/13 09:28:37;;;;;;;41.33;21.02;;;-3.80;99.90;;;;;;4989218;28;20189;-77
2022/12/13 09:31:14;;;;;;;22.17;11.85;;;-3.50;99.90;;;;;;4971207;28;20210;-77
2022/12/13 09:33:40;;;;;;;17.83;11.05;;;-3.20;99.90;;;;;;4988883;28;20675;-76
2022/12/13 09:36:07;;;;;;;25.07;13.77;;;-2.80;99.90;;;;;;4971285;28;20194;-78
2022/12/13 09:38:34;;;;;;;18.58;11.40;;;-2.50;99.90;;;;;;4971758;28;20431;-77
2022/12/13 09:41:22;;;;;;;18.25;10.48;;;-2.30;99.90;;;;;;4971934;28;20257;-78
2022/12/13 09:43:54;;;;;;;25.67;12.63;;;-2.20;99.00;;;;;;4989442;28;20982;-76
2022/12/13 09:46:26;;;;;;;26.05;13.35;;;-2.20;99.60;;;;;;4989389;28;20182;-76
2022/12/13 09:48:53;;;;;;;15.48;10.32;;;-2.00;99.90;;;;;;4989318;28;20181;-77
2022/12/13 09:51:19;;;;;;;21.58;10.13;;;-2.00;99.20;;;;;;4989300;28;20216;-77
2022/12/13 09:53:49;;;;;;;18.80;10.60;;;-1.80;98.30;;;;;;4971365;28;20664;-77
2022/12/13 09:56:18;;;;;;;20.30;10.48;;;-1.30;98.10;;;;;;4989494;28;20203;-76
2022/12/13 09:58:48;;;;;;;22.27;12.70;;;-0.80;97.10;;;;;;4989073;28;20177;-77
2022/12/13 10:01:14;;;;;;;37.42;16.73;;;-0.20;96.80;;;;;;4988833;28;20560;-77
2022/12/13 10:03:45;;;;;;;73.38;33.47;;;0.40;96.00;;;;;;4990813;28;20209;-77
2022/12/13 10:06:15;;;;;;;26.38;15.75;;;1.00;95.30;;;;;;4989132;28;20524;-77
2022/12/13 10:08:43;;;;;;;24.00;13.57;;;1.70;93.00;;;;;;4988983;28;20170;-77
2022/12/13 10:11:14;;;;;;;42.00;19.48;;;1.60;91.10;;;;;;4971012;28;20216;-77
2022/12/13 10:13:58;;;;;;;37.10;17.58;;;1.70;90.80;;;;;;4988812;28;20189;-77
2022/12/13 10:16:34;;;;;;;22.42;11.32;;;1.80;89.70;;;;;;4973598;28;20192;-77
2022/12/13 10:19:27;;;;;;;21.73;10.02;;;2.10;89.00;;;;;;4988797;28;20167;-78
2022/12/13 10:21:53;;;;;;;17.85;9.82;;;2.20;85.80;;;;;;4971456;28;20242;-77
2022/12/13 10:24:24;;;;;;;30.17;14.93;;;2.60;87.50;;;;;;4988369;28;20245;-77
2022/12/13 10:26:50;;;;;;;28.70;15.90;;;2.50;88.00;;;;;;4988969;28;20899;-77
2022/12/13 10:29:16;;;;;;;36.87;15.30;;;2.40;89.30;;;;;;4971256;28;20175;-78
2022/12/13 10:31:50;;;;;;;90.40;33.90;;;2.60;87.60;;;;;;4988564;28;20461;-77
2022/12/13 10:34:26;;;;;;;71.82;27.20;;;2.70;86.60;;;;;;4971011;28;20248;-77
2022/12/13 10:36:52;;;;;;;69.35;25.52;;;2.80;83.80;;;;;;4988546;28;20268;-77
2022/12/13 10:39:38;;;;;;;88.33;30.90;;;3.00;83.00;;;;;;4970786;28;20273;-77
2022/12/13 10:42:15;;;;;;;55.90;21.55;;;3.30;81.20;;;;;;4988778;28;20859;-77
2022/12/13 10:44:42;;;;;;;24.55;12.25;;;3.40;79.70;;;;;;4956193;28;20191;-78
2022/12/13 10:47:21;;;;;;;16.17;9.80;;;3.70;79.60;;;;;;4971486;28;20263;-78
2022/12/13 10:49:52;;;;;;;17.77;11.60;;;3.70;79.10;;;;;;4988650;28;20917;-78
2022/12/13 10:52:39;;;;;;;32.70;16.08;;;3.90;79.20;;;;;;4974551;28;20204;-78
2022/12/13 10:55:21;;;;;;;27.05;13.05;;;4.20;77.10;;;;;;4974786;28;20193;-78
2022/12/13 10:57:52;;;;;;;12.98;7.80;;;4.40;74.10;;;;;;4974669;28;20188;-78
2022/12/13 11:00:40;;;;;;;52.60;19.40;;;4.50;71.40;;;;;;4974648;28;20714;-78
2022/12/13 11:03:08;;;;;;;13.63;7.57;;;4.50;68.70;;;;;;4976171;28;20467;-78
2022/12/13 11:05:37;;;;;;;21.03;13.03;;;4.50;69.50;;;;;;4992526;28;21292;-78
2022/12/13 11:08:35;;;;;;;29.30;14.93;;;4.50;74.30;;;;;;4992359;28;20507;-78
2022/12/13 11:11:06;;;;;;;16.70;11.17;;;4.40;74.10;;;;;;4959097;28;20248;-78
2022/12/13 11:13:32;;;;;;;13.88;9.32;;;4.40;70.80;;;;;;4975287;28;20434;-78
2022/12/13 11:15:58;;;;;;;20.73;12.23;;;4.20;70.10;;;;;;4992626;28;20180;-78
2022/12/13 11:18:30;;;;;;;18.53;11.70;;;4.00;73.10;;;;;;4974983;28;20189;-79
2022/12/13 11:20:58;;;;;;;19.63;10.93;;;3.90;74.80;;;;;;4992551;28;20193;-78
2022/12/13 11:23:38;;;;;;;19.77;12.68;;;3.70;72.80;;;;;;4975115;28;20938;-78
2022/12/13 11:26:16;;;;;;;19.23;11.17;;;3.10;74.10;;;;;;4976976;28;20690;-78
2022/12/13 11:29:01;;;;;;;21.48;12.38;;;2.80;75.40;;;;;;4974852;28;20413;-78
2022/12/13 11:31:32;;;;;;;16.80;9.63;;;2.90;75.30;;;;;;4978009;28;20650;-79
2022/12/13 11:34:40;;;;;;;16.80;10.77;;;2.70;75.70;;;;;;4976676;28;20936;-78
2022/12/13 11:37:27;;;;;;;22.45;11.20;;;2.60;77.80;;;;;;4983355;28;20568;-78
2022/12/13 11:40:04;;;;;;;20.20;10.70;;;2.40;78.70;;;;;;4975081;28;20547;-77
2022/12/13 11:42:42;;;;;;;20.95;11.65;;;2.20;77.80;;;;;;4992538;28;20277;-78
2022/12/13 11:45:16;;;;;;;21.42;10.20;;;1.90;79.70;;;;;;4992394;28;20206;-78
2022/12/13 11:47:58;;;;;;;15.50;9.98;;;1.80;79.00;;;;;;4993355;28;20254;-78
2022/12/13 11:50:38;;;;;;;14.52;9.65;;;1.60;79.80;;;;;;4992437;28;20685;-78
2022/12/13 11:53:18;;;;;;;14.00;9.30;;;1.50;78.70;;;;;;4992371;28;20699;-78
2022/12/13 11:56:07;;;;;;;19.08;11.75;;;1.50;79.80;;;;;;4992245;28;20206;-78
2022/12/13 11:58:38;;;;;;;18.58;9.88;;;1.30;81.50;;;;;;4974812;28;20188;-78
2022/12/13 12:01:16;;;;;;;21.00;11.00;;;1.20;84.30;;;;;;4992038;28;20206;-78
2022/12/13 12:04:01;;;;;;;18.85;10.65;;;1.00;84.70;;;;;;4992581;28;20249;-78
2022/12/13 12:06:31;;;;;;;24.15;10.93;;;0.90;87.00;;;;;;4977067;28;20165;-78
2022/12/13 12:09:05;;;;;;;13.30;7.20;;;0.80;82.30;;;;;;4992529;28;20193;-78
2022/12/13 12:11:55;;;;;;;15.82;9.60;;;0.90;80.30;;;;;;4991492;28;20278;-79
2022/12/13 12:14:40;;;;;;;16.92;9.50;;;0.80;81.90;;;;;;4975127;28;20190;-78
2022/12/13 12:17:10;;;;;;;18.17;8.27;;;0.90;84.40;;;;;;4992522;28;20728;-78
2022/12/13 12:19:39;;;;;;;13.40;8.35;;;0.90;84.10;;;;;;4976425;28;20203;-78
2022/12/13 12:22:13;;;;;;;10.45;6.97;;;0.90;81.90;;;;;;4959107;28;20273;-78
2022/12/13 12:24:48;;;;;;;23.73;7.93;;;0.80;82.60;;;;;;4993022;28;20175;-77
2022/12/13 12:27:21;;;;;;;12.38;7.32;;;0.90;84.70;;;;;;4975477;28;20184;-78
2022/12/13 12:30:13;;;;;;;14.80;7.95;;;0.90;81.60;;;;;;4974497;28;20739;-78
2022/12/13 12:33:03;;;;;;;15.32;7.85;;;0.90;81.50;;;;;;4975355;28;20260;-78
2022/12/13 12:35:59;;;;;;;23.67;8.75;;;0.80;80.40;;;;;;4974725;28;20186;-78
2022/12/13 12:38:52;;;;;;;21.40;9.25;;;0.80;81.50;;;;;;4974960;28;20646;-78
2022/12/13 12:41:42;;;;;;;20.40;8.98;;;0.90;81.40;;;;;;4993178;28;20203;-78
2022/12/13 12:44:16;;;;;;;11.10;5.50;;;0.90;80.50;;;;;;4975322;28;20876;-77
2022/12/13 12:46:50;;;;;;;16.10;6.65;;;0.90;73.90;;;;;;4992694;28;20192;-78
2022/12/13 12:49:30;;;;;;;14.10;6.55;;;0.90;75.50;;;;;;4992812;28;20176;-78
2022/12/13 12:52:24;;;;;;;9.50;5.45;;;1.00;77.20;;;;;;4975299;28;20213;-78
2022/12/13 12:55:11;;;;;;;5.95;4.63;;;1.00;75.20;;;;;;4973955;28;20666;-78
2022/12/13 12:58:00;;;;;;;9.30;6.43;;;1.10;76.90;;;;;;4991267;28;20193;-77